sensor_id;sensor_type;location;lat;lon;timestamp;temperature;humidity
38788;DHT22;24536;45.488;12.238;2023-04-15T00:02:12;13.30;82.70
38788;DHT22;24536;45.488;12.238;2023-04-15T00:04:38;13.20;83.00
38788;DHT22;24536;45.488;12.238;2023-04-15T00:07:04;13.20;83.10
38788;DHT22;24536;45.488;12.238;2023-04-15T00:09:29;13.20;83.30
38788;DHT22;24536;45.488;12.238;2023-04-15T00:11:55;13.20;83.50
38788;DHT22;24536;45.488;12.238;2023-04-15T00:14:20;13.20;83.70
38788;DHT22;24536;45.488;12.238;2023-04-15T00:16:46;13.20;83.90
38788;DHT22;24536;45.488;12.238;2023-04-15T00:19:14;13.20;84.00
38788;DHT22;24536;45.488;12.238;2023-04-15T00:21:39;13.20;84.20
38788;DHT22;24536;45.488;12.238;2023-04-15T00:24:05;13.20;84.50
38788;DHT22;24536;45.488;12.238;2023-04-15T00:26:31;13.10;84.50
38788;DHT22;24536;45.488;12.238;2023-04-15T00:28:56;13.10;84.60
38788;DHT22;24536;45.488;12.238;2023-04-15T00:31:22;13.10;84.60
38788;DHT22;24536;45.488;12.238;2023-04-15T00:33:48;13.00;84.80
38788;DHT22;24536;45.488;12.238;2023-04-15T00:36:14;13.00;85.00
38788;DHT22;24536;45.488;12.238;2023-04-15T00:38:40;13.00;85.10
38788;DHT22;24536;45.488;12.238;2023-04-15T00:41:05;13.00;85.10
38788;DHT22;24536;45.488;12.238;2023-04-15T00:43:32;13.00;85.10
38788;DHT22;24536;45.488;12.238;2023-04-15T00:45:58;13.00;85.00
38788;DHT22;24536;45.488;12.238;2023-04-15T00:48:25;12.90;85.00
38788;DHT22;24536;45.488;12.238;2023-04-15T00:50:52;12.90;85.20
38788;DHT22;24536;45.488;12.238;2023-04-15T00:53:17;12.90;85.30
38788;DHT22;24536;45.488;12.238;2023-04-15T00:55:43;12.80;85.40
38788;DHT22;24536;45.488;12.238;2023-04-15T00:58:09;12.80;85.60
38788;DHT22;24536;45.488;12.238;2023-04-15T01:00:35;12.80;85.60
38788;DHT22;24536;45.488;12.238;2023-04-15T01:03:01;12.80;85.50
38788;DHT22;24536;45.488;12.238;2023-04-15T01:05:27;12.80;85.50
38788;DHT22;24536;45.488;12.238;2023-04-15T01:07:54;12.80;85.60
38788;DHT22;24536;45.488;12.238;2023-04-15T01:10:20;12.80;85.60
38788;DHT22;24536;45.488;12.238;2023-04-15T01:12:46;12.80;85.70
38788;DHT22;24536;45.488;12.238;2023-04-15T01:15:12;12.70;85.50
38788;DHT22;24536;45.488;12.238;2023-04-15T01:17:38;12.80;85.70
38788;DHT22;24536;45.488;12.238;2023-04-15T01:20:04;12.70;85.70
38788;DHT22;24536;45.488;12.238;2023-04-15T01:22:32;12.80;85.80
38788;DHT22;24536;45.488;12.238;2023-04-15T01:25:12;12.70;85.70
38788;DHT22;24536;45.488;12.238;2023-04-15T01:27:41;12.80;85.50
38788;DHT22;24536;45.488;12.238;2023-04-15T01:30:08;12.70;85.40
38788;DHT22;24536;45.488;12.238;2023-04-15T01:32:35;12.80;85.50
38788;DHT22;24536;45.488;12.238;2023-04-15T01:35:01;12.70;85.40
38788;DHT22;24536;45.488;12.238;2023-04-15T01:37:28;12.80;85.40
38788;DHT22;24536;45.488;12.238;2023-04-15T01:39:54;12.70;85.40
38788;DHT22;24536;45.488;12.238;2023-04-15T01:42:20;12.70;85.50
38788;DHT22;24536;45.488;12.238;2023-04-15T01:44:46;12.70;85.60
38788;DHT22;24536;45.488;12.238;2023-04-15T01:47:12;12.70;85.80
38788;DHT22;24536;45.488;12.238;2023-04-15T01:49:38;12.60;85.80
38788;DHT22;24536;45.488;12.238;2023-04-15T01:52:04;12.60;85.90
38788;DHT22;24536;45.488;12.238;2023-04-15T01:54:30;12.60;85.90
38788;DHT22;24536;45.488;12.238;2023-04-15T01:56:55;12.60;86.00
38788;DHT22;24536;45.488;12.238;2023-04-15T01:59:21;12.60;86.10
38788;DHT22;24536;45.488;12.238;2023-04-15T02:01:47;12.60;86.10
38788;DHT22;24536;45.488;12.238;2023-04-15T02:04:13;12.60;86.20
38788;DHT22;24536;45.488;12.238;2023-04-15T02:06:42;12.60;86.30
38788;DHT22;24536;45.488;12.238;2023-04-15T02:09:09;12.50;86.40
38788;DHT22;24536;45.488;12.238;2023-04-15T02:11:35;12.50;86.60
38788;DHT22;24536;45.488;12.238;2023-04-15T02:14:02;12.60;86.70
38788;DHT22;24536;45.488;12.238;2023-04-15T02:16:29;12.60;86.80
38788;DHT22;24536;45.488;12.238;2023-04-15T02:18:55;12.60;86.80
38788;DHT22;24536;45.488;12.238;2023-04-15T02:21:20;12.50;86.70
38788;DHT22;24536;45.488;12.238;2023-04-15T02:23:47;12.50;86.90
38788;DHT22;24536;45.488;12.238;2023-04-15T02:26:13;12.50;87.00
38788;DHT22;24536;45.488;12.238;2023-04-15T02:28:39;12.50;87.20
38788;DHT22;24536;45.488;12.238;2023-04-15T02:31:07;12.50;87.20
38788;DHT22;24536;45.488;12.238;2023-04-15T02:33:34;12.50;87.40
38788;DHT22;24536;45.488;12.238;2023-04-15T02:36:01;12.50;87.40
38788;DHT22;24536;45.488;12.238;2023-04-15T02:38:27;12.50;87.50
38788;DHT22;24536;45.488;12.238;2023-04-15T02:40:52;12.50;87.50
38788;DHT22;24536;45.488;12.238;2023-04-15T02:43:18;12.50;87.60
38788;DHT22;24536;45.488;12.238;2023-04-15T02:45:45;12.50;87.60
38788;DHT22;24536;45.488;12.238;2023-04-15T02:48:11;12.40;87.50
38788;DHT22;24536;45.488;12.238;2023-04-15T02:50:37;12.40;87.70
38788;DHT22;24536;45.488;12.238;2023-04-15T02:53:06;12.50;87.80
38788;DHT22;24536;45.488;12.238;2023-04-15T02:55:32;12.40;87.80
38788;DHT22;24536;45.488;12.238;2023-04-15T02:57:57;12.40;87.90
38788;DHT22;24536;45.488;12.238;2023-04-15T03:00:25;12.40;88.00
38788;DHT22;24536;45.488;12.238;2023-04-15T03:02:57;12.40;88.00
38788;DHT22;24536;45.488;12.238;2023-04-15T03:05:23;12.40;87.90
38788;DHT22;24536;45.488;12.238;2023-04-15T03:07:50;12.40;88.00
38788;DHT22;24536;45.488;12.238;2023-04-15T03:10:16;12.40;88.20
38788;DHT22;24536;45.488;12.238;2023-04-15T03:12:42;12.40;88.30
38788;DHT22;24536;45.488;12.238;2023-04-15T03:15:08;12.30;88.30
38788;DHT22;24536;45.488;12.238;2023-04-15T03:17:34;12.30;88.50
38788;DHT22;24536;45.488;12.238;2023-04-15T03:20:03;12.30;88.70
38788;DHT22;24536;45.488;12.238;2023-04-15T03:22:30;12.30;88.80
38788;DHT22;24536;45.488;12.238;2023-04-15T03:24:56;12.30;89.00
38788;DHT22;24536;45.488;12.238;2023-04-15T03:27:22;12.30;89.00
38788;DHT22;24536;45.488;12.238;2023-04-15T03:29:48;12.30;89.10
38788;DHT22;24536;45.488;12.238;2023-04-15T03:32:13;12.30;89.20
38788;DHT22;24536;45.488;12.238;2023-04-15T03:34:40;12.30;89.30
38788;DHT22;24536;45.488;12.238;2023-04-15T03:37:06;12.30;89.50
38788;DHT22;24536;45.488;12.238;2023-04-15T03:39:33;12.30;89.60
38788;DHT22;24536;45.488;12.238;2023-04-15T03:41:58;12.30;89.60
38788;DHT22;24536;45.488;12.238;2023-04-15T03:44:27;12.30;89.70
38788;DHT22;24536;45.488;12.238;2023-04-15T03:46:53;12.20;89.80
38788;DHT22;24536;45.488;12.238;2023-04-15T03:49:19;12.20;89.90
38788;DHT22;24536;45.488;12.238;2023-04-15T03:51:45;12.20;90.00
38788;DHT22;24536;45.488;12.238;2023-04-15T03:54:11;12.20;90.10
38788;DHT22;24536;45.488;12.238;2023-04-15T03:56:39;12.20;90.10
38788;DHT22;24536;45.488;12.238;2023-04-15T03:59:05;12.10;90.20
38788;DHT22;24536;45.488;12.238;2023-04-15T04:01:31;12.10;90.40
38788;DHT22;24536;45.488;12.238;2023-04-15T04:03:56;12.00;90.40
38788;DHT22;24536;45.488;12.238;2023-04-15T04:06:22;12.00;90.50
38788;DHT22;24536;45.488;12.238;2023-04-15T04:08:48;12.00;90.70
38788;DHT22;24536;45.488;12.238;2023-04-15T04:11:13;12.00;90.70
38788;DHT22;24536;45.488;12.238;2023-04-15T04:13:39;12.00;90.70
38788;DHT22;24536;45.488;12.238;2023-04-15T04:16:05;12.00;90.80
38788;DHT22;24536;45.488;12.238;2023-04-15T04:18:31;12.10;90.90
38788;DHT22;24536;45.488;12.238;2023-04-15T04:20:57;12.00;90.90
38788;DHT22;24536;45.488;12.238;2023-04-15T04:23:23;12.00;91.00
38788;DHT22;24536;45.488;12.238;2023-04-15T04:25:48;12.00;91.00
38788;DHT22;24536;45.488;12.238;2023-04-15T04:28:14;12.00;91.00
38788;DHT22;24536;45.488;12.238;2023-04-15T04:30:40;12.00;91.20
38788;DHT22;24536;45.488;12.238;2023-04-15T04:33:06;12.00;91.20
38788;DHT22;24536;45.488;12.238;2023-04-15T04:35:32;12.00;91.30
38788;DHT22;24536;45.488;12.238;2023-04-15T04:38:00;12.00;91.30
38788;DHT22;24536;45.488;12.238;2023-04-15T04:40:26;12.10;91.40
38788;DHT22;24536;45.488;12.238;2023-04-15T04:42:52;12.10;91.40
38788;DHT22;24536;45.488;12.238;2023-04-15T04:45:19;12.10;91.50
38788;DHT22;24536;45.488;12.238;2023-04-15T04:47:45;12.10;91.50
38788;DHT22;24536;45.488;12.238;2023-04-15T04:50:12;12.20;91.40
38788;DHT22;24536;45.488;12.238;2023-04-15T04:52:38;12.20;91.50
38788;DHT22;24536;45.488;12.238;2023-04-15T04:55:04;12.20;91.60
38788;DHT22;24536;45.488;12.238;2023-04-15T04:57:30;12.20;91.60
38788;DHT22;24536;45.488;12.238;2023-04-15T04:59:55;12.20;91.80
38788;DHT22;24536;45.488;12.238;2023-04-15T05:02:22;12.20;91.80
38788;DHT22;24536;45.488;12.238;2023-04-15T05:04:47;12.20;91.80
38788;DHT22;24536;45.488;12.238;2023-04-15T05:07:14;12.30;91.80
38788;DHT22;24536;45.488;12.238;2023-04-15T05:09:45;12.30;91.70
38788;DHT22;24536;45.488;12.238;2023-04-15T05:12:11;12.40;91.90
38788;DHT22;24536;45.488;12.238;2023-04-15T05:14:40;12.40;91.90
38788;DHT22;24536;45.488;12.238;2023-04-15T05:17:07;12.50;91.90
38788;DHT22;24536;45.488;12.238;2023-04-15T05:19:33;12.50;92.00
38788;DHT22;24536;45.488;12.238;2023-04-15T05:21:59;12.50;92.00
38788;DHT22;24536;45.488;12.238;2023-04-15T05:27:00;12.50;91.80
38788;DHT22;24536;45.488;12.238;2023-04-15T05:29:26;12.60;92.00
38788;DHT22;24536;45.488;12.238;2023-04-15T05:31:52;12.60;92.00
38788;DHT22;24536;45.488;12.238;2023-04-15T05:34:17;12.60;92.10
38788;DHT22;24536;45.488;12.238;2023-04-15T05:36:43;12.50;91.90
38788;DHT22;24536;45.488;12.238;2023-04-15T05:39:09;12.60;92.00
38788;DHT22;24536;45.488;12.238;2023-04-15T05:41:35;12.70;92.00
38788;DHT22;24536;45.488;12.238;2023-04-15T05:44:00;12.70;92.20
38788;DHT22;24536;45.488;12.238;2023-04-15T05:46:26;12.70;92.00
38788;DHT22;24536;45.488;12.238;2023-04-15T05:48:52;12.70;91.90
38788;DHT22;24536;45.488;12.238;2023-04-15T05:51:17;12.80;92.00
38788;DHT22;24536;45.488;12.238;2023-04-15T05:53:43;12.80;92.00
38788;DHT22;24536;45.488;12.238;2023-04-15T05:56:10;12.80;92.00
38788;DHT22;24536;45.488;12.238;2023-04-15T05:58:36;12.30;91.80
38788;DHT22;24536;45.488;12.238;2023-04-15T06:01:02;12.90;92.00
38788;DHT22;24536;45.488;12.238;2023-04-15T06:03:28;13.00;91.90
38788;DHT22;24536;45.488;12.238;2023-04-15T06:05:53;13.00;91.90
38788;DHT22;24536;45.488;12.238;2023-04-15T06:08:19;13.00;91.90
38788;DHT22;24536;45.488;12.238;2023-04-15T06:10:46;13.10;91.80
38788;DHT22;24536;45.488;12.238;2023-04-15T06:13:11;13.10;91.80
38788;DHT22;24536;45.488;12.238;2023-04-15T06:15:37;13.20;91.80
38788;DHT22;24536;45.488;12.238;2023-04-15T06:18:03;13.20;91.80
38788;DHT22;24536;45.488;12.238;2023-04-15T06:20:28;13.30;91.70
38788;DHT22;24536;45.488;12.238;2023-04-15T06:22:54;13.40;91.70
38788;DHT22;24536;45.488;12.238;2023-04-15T06:25:20;13.40;91.60
38788;DHT22;24536;45.488;12.238;2023-04-15T06:27:45;13.50;91.60
38788;DHT22;24536;45.488;12.238;2023-04-15T06:30:11;13.60;91.50
38788;DHT22;24536;45.488;12.238;2023-04-15T06:32:37;13.60;91.50
38788;DHT22;24536;45.488;12.238;2023-04-15T06:35:03;13.70;91.40
38788;DHT22;24536;45.488;12.238;2023-04-15T06:37:28;13.70;91.30
38788;DHT22;24536;45.488;12.238;2023-04-15T06:39:54;13.70;91.20
38788;DHT22;24536;45.488;12.238;2023-04-15T06:42:20;13.80;91.10
38788;DHT22;24536;45.488;12.238;2023-04-15T06:44:46;13.80;91.20
38788;DHT22;24536;45.488;12.238;2023-04-15T06:47:11;13.90;91.20
38788;DHT22;24536;45.488;12.238;2023-04-15T06:49:39;13.90;91.20
38788;DHT22;24536;45.488;12.238;2023-04-15T06:52:05;13.90;91.10
38788;DHT22;24536;45.488;12.238;2023-04-15T06:54:31;14.00;91.10
38788;DHT22;24536;45.488;12.238;2023-04-15T06:56:57;14.00;91.00
38788;DHT22;24536;45.488;12.238;2023-04-15T06:59:23;14.00;91.00
38788;DHT22;24536;45.488;12.238;2023-04-15T07:01:48;14.10;91.20
38788;DHT22;24536;45.488;12.238;2023-04-15T07:04:14;14.00;91.00
38788;DHT22;24536;45.488;12.238;2023-04-15T07:06:40;14.10;91.00
38788;DHT22;24536;45.488;12.238;2023-04-15T07:09:06;14.10;91.10
38788;DHT22;24536;45.488;12.238;2023-04-15T07:11:33;14.20;91.00
38788;DHT22;24536;45.488;12.238;2023-04-15T07:13:58;14.30;90.90
38788;DHT22;24536;45.488;12.238;2023-04-15T07:16:24;14.30;90.90
38788;DHT22;24536;45.488;12.238;2023-04-15T07:18:50;14.40;90.90
38788;DHT22;24536;45.488;12.238;2023-04-15T07:21:16;14.40;90.80
38788;DHT22;24536;45.488;12.238;2023-04-15T07:23:42;14.50;90.70
38788;DHT22;24536;45.488;12.238;2023-04-15T07:26:07;14.50;90.60
38788;DHT22;24536;45.488;12.238;2023-04-15T07:28:33;14.60;90.50
38788;DHT22;24536;45.488;12.238;2023-04-15T07:30:59;14.60;90.40
38788;DHT22;24536;45.488;12.238;2023-04-15T07:33:25;14.70;90.30
38788;DHT22;24536;45.488;12.238;2023-04-15T07:35:50;14.70;90.30
38788;DHT22;24536;45.488;12.238;2023-04-15T07:38:16;14.70;90.00
38788;DHT22;24536;45.488;12.238;2023-04-15T07:40:42;14.70;90.00
38788;DHT22;24536;45.488;12.238;2023-04-15T07:43:08;14.70;90.00
38788;DHT22;24536;45.488;12.238;2023-04-15T07:45:34;14.80;90.10
38788;DHT22;24536;45.488;12.238;2023-04-15T07:48:01;14.80;90.00
38788;DHT22;24536;45.488;12.238;2023-04-15T07:50:27;14.90;90.00
38788;DHT22;24536;45.488;12.238;2023-04-15T07:52:53;15.10;90.00
38788;DHT22;24536;45.488;12.238;2023-04-15T07:55:18;15.20;89.70
38788;DHT22;24536;45.488;12.238;2023-04-15T07:57:47;15.20;89.40
38788;DHT22;24536;45.488;12.238;2023-04-15T08:00:14;15.30;89.10
38788;DHT22;24536;45.488;12.238;2023-04-15T08:02:41;15.40;89.20
38788;DHT22;24536;45.488;12.238;2023-04-15T08:05:08;15.40;88.90
38788;DHT22;24536;45.488;12.238;2023-04-15T08:07:36;15.50;88.50
38788;DHT22;24536;45.488;12.238;2023-04-15T08:10:02;15.50;88.40
38788;DHT22;24536;45.488;12.238;2023-04-15T08:12:28;15.60;88.30
38788;DHT22;24536;45.488;12.238;2023-04-15T08:14:54;15.60;88.30
38788;DHT22;24536;45.488;12.238;2023-04-15T08:17:19;15.70;88.30
38788;DHT22;24536;45.488;12.238;2023-04-15T08:19:45;15.80;88.00
38788;DHT22;24536;45.488;12.238;2023-04-15T08:22:12;15.80;87.80
38788;DHT22;24536;45.488;12.238;2023-04-15T08:24:38;15.90;87.80
38788;DHT22;24536;45.488;12.238;2023-04-15T08:27:05;16.00;87.70
38788;DHT22;24536;45.488;12.238;2023-04-15T08:29:32;16.10;87.40
38788;DHT22;24536;45.488;12.238;2023-04-15T08:31:59;16.10;87.20
38788;DHT22;24536;45.488;12.238;2023-04-15T08:34:26;16.20;87.00
38788;DHT22;24536;45.488;12.238;2023-04-15T08:36:55;16.20;86.90
38788;DHT22;24536;45.488;12.238;2023-04-15T08:39:21;16.30;87.00
38788;DHT22;24536;45.488;12.238;2023-04-15T08:41:51;16.40;86.80
38788;DHT22;24536;45.488;12.238;2023-04-15T08:44:16;16.40;86.30
38788;DHT22;24536;45.488;12.238;2023-04-15T08:46:43;16.40;85.80
38788;DHT22;24536;45.488;12.238;2023-04-15T08:49:12;16.40;84.80
38788;DHT22;24536;45.488;12.238;2023-04-15T08:51:39;16.40;85.30
38788;DHT22;24536;45.488;12.238;2023-04-15T08:54:07;16.50;85.40
38788;DHT22;24536;45.488;12.238;2023-04-15T08:56:33;16.50;85.30
38788;DHT22;24536;45.488;12.238;2023-04-15T08:59:00;16.60;84.90
38788;DHT22;24536;45.488;12.238;2023-04-15T09:01:26;16.60;84.40
38788;DHT22;24536;45.488;12.238;2023-04-15T09:03:52;16.50;83.80
38788;DHT22;24536;45.488;12.238;2023-04-15T09:06:20;16.50;84.30
38788;DHT22;24536;45.488;12.238;2023-04-15T09:08:46;16.60;84.20
38788;DHT22;24536;45.488;12.238;2023-04-15T09:11:11;16.60;83.50
38788;DHT22;24536;45.488;12.238;2023-04-15T09:13:37;16.70;83.20
38788;DHT22;24536;45.488;12.238;2023-04-15T09:16:04;16.90;83.30
38788;DHT22;24536;45.488;12.238;2023-04-15T09:18:32;17.00;82.60
38788;DHT22;24536;45.488;12.238;2023-04-15T09:21:13;17.00;81.50
38788;DHT22;24536;45.488;12.238;2023-04-15T09:23:52;17.10;81.80
38788;DHT22;24536;45.488;12.238;2023-04-15T09:26:18;17.10;81.60
38788;DHT22;24536;45.488;12.238;2023-04-15T09:28:44;17.10;81.10
38788;DHT22;24536;45.488;12.238;2023-04-15T09:31:10;17.10;81.20
38788;DHT22;24536;45.488;12.238;2023-04-15T09:33:53;17.20;81.50
38788;DHT22;24536;45.488;12.238;2023-04-15T09:36:19;17.30;81.30
38788;DHT22;24536;45.488;12.238;2023-04-15T09:38:58;17.40;81.40
38788;DHT22;24536;45.488;12.238;2023-04-15T09:41:25;17.60;80.10
38788;DHT22;24536;45.488;12.238;2023-04-15T09:43:51;17.70;80.30
38788;DHT22;24536;45.488;12.238;2023-04-15T09:46:17;17.70;79.10
38788;DHT22;24536;45.488;12.238;2023-04-15T09:48:43;17.80;79.20
38788;DHT22;24536;45.488;12.238;2023-04-15T09:51:09;17.90;78.60
38788;DHT22;24536;45.488;12.238;2023-04-15T09:53:35;18.00;78.10
38788;DHT22;24536;45.488;12.238;2023-04-15T09:56:01;18.10;78.20
38788;DHT22;24536;45.488;12.238;2023-04-15T09:58:28;18.10;77.30
38788;DHT22;24536;45.488;12.238;2023-04-15T10:00:56;18.00;77.40
38788;DHT22;24536;45.488;12.238;2023-04-15T10:03:29;18.10;76.80
38788;DHT22;24536;45.488;12.238;2023-04-15T10:05:57;18.00;76.30
38788;DHT22;24536;45.488;12.238;2023-04-15T10:08:28;18.00;77.00
38788;DHT22;24536;45.488;12.238;2023-04-15T10:10:54;17.90;76.50
38788;DHT22;24536;45.488;12.238;2023-04-15T10:13:25;18.00;76.60
38788;DHT22;24536;45.488;12.238;2023-04-15T10:15:59;18.00;76.80
38788;DHT22;24536;45.488;12.238;2023-04-15T10:18:27;18.00;76.10
38788;DHT22;24536;45.488;12.238;2023-04-15T10:20:54;18.10;77.00
38788;DHT22;24536;45.488;12.238;2023-04-15T10:23:21;18.30;77.60
38788;DHT22;24536;45.488;12.238;2023-04-15T10:25:48;18.50;74.90
38788;DHT22;24536;45.488;12.238;2023-04-15T10:28:15;18.60;75.60
38788;DHT22;24536;45.488;12.238;2023-04-15T10:30:42;18.70;74.70
38788;DHT22;24536;45.488;12.238;2023-04-15T10:33:08;18.80;73.90
38788;DHT22;24536;45.488;12.238;2023-04-15T10:35:36;18.80;74.10
38788;DHT22;24536;45.488;12.238;2023-04-15T10:38:06;18.80;73.00
38788;DHT22;24536;45.488;12.238;2023-04-15T10:40:49;18.90;73.30
38788;DHT22;24536;45.488;12.238;2023-04-15T10:43:24;19.00;73.80
38788;DHT22;24536;45.488;12.238;2023-04-15T10:45:53;19.10;72.80
38788;DHT22;24536;45.488;12.238;2023-04-15T10:48:19;19.30;73.30
38788;DHT22;24536;45.488;12.238;2023-04-15T10:50:55;19.50;72.80
38788;DHT22;24536;45.488;12.238;2023-04-15T10:53:29;19.70;72.40
38788;DHT22;24536;45.488;12.238;2023-04-15T10:55:56;19.80;69.00
38788;DHT22;24536;45.488;12.238;2023-04-15T10:58:23;19.90;70.30
38788;DHT22;24536;45.488;12.238;2023-04-15T11:00:51;20.20;70.80
38788;DHT22;24536;45.488;12.238;2023-04-15T11:03:36;20.30;69.50
38788;DHT22;24536;45.488;12.238;2023-04-15T11:06:03;20.50;68.90
38788;DHT22;24536;45.488;12.238;2023-04-15T11:11:21;20.80;68.00
38788;DHT22;24536;45.488;12.238;2023-04-15T11:13:48;20.70;67.90
38788;DHT22;24536;45.488;12.238;2023-04-15T11:16:14;20.50;67.60
38788;DHT22;24536;45.488;12.238;2023-04-15T11:18:40;20.30;67.80
38788;DHT22;24536;45.488;12.238;2023-04-15T11:21:07;20.20;68.20
38788;DHT22;24536;45.488;12.238;2023-04-15T11:23:38;20.10;68.50
38788;DHT22;24536;45.488;12.238;2023-04-15T11:26:07;20.20;68.50
38788;DHT22;24536;45.488;12.238;2023-04-15T11:28:42;20.60;69.00
38788;DHT22;24536;45.488;12.238;2023-04-15T11:31:16;21.00;68.20
38788;DHT22;24536;45.488;12.238;2023-04-15T11:33:56;21.70;67.90
38788;DHT22;24536;45.488;12.238;2023-04-15T11:36:24;23.20;64.90
38788;DHT22;24536;45.488;12.238;2023-04-15T11:38:51;23.70;62.00
38788;DHT22;24536;45.488;12.238;2023-04-15T11:41:21;24.10;61.10
38788;DHT22;24536;45.488;12.238;2023-04-15T11:43:47;25.20;58.40
38788;DHT22;24536;45.488;12.238;2023-04-15T11:46:13;26.10;56.00
38788;DHT22;24536;45.488;12.238;2023-04-15T11:48:42;26.80;54.60
38788;DHT22;24536;45.488;12.238;2023-04-15T11:51:09;27.30;54.00
38788;DHT22;24536;45.488;12.238;2023-04-15T11:53:44;27.30;52.50
38788;DHT22;24536;45.488;12.238;2023-04-15T11:56:20;26.70;52.80
38788;DHT22;24536;45.488;12.238;2023-04-15T11:58:47;26.10;53.30
38788;DHT22;24536;45.488;12.238;2023-04-15T12:01:14;25.50;53.50
38788;DHT22;24536;45.488;12.238;2023-04-15T12:03:40;24.70;53.40
38788;DHT22;24536;45.488;12.238;2023-04-15T12:06:18;23.70;55.30
38788;DHT22;24536;45.488;12.238;2023-04-15T12:11:47;22.90;58.30
38788;DHT22;24536;45.488;12.238;2023-04-15T12:14:25;22.70;58.30
38788;DHT22;24536;45.488;12.238;2023-04-15T12:17:13;22.30;59.30
38788;DHT22;24536;45.488;12.238;2023-04-15T12:19:41;22.00;60.10
38788;DHT22;24536;45.488;12.238;2023-04-15T12:22:11;22.30;62.30
38788;DHT22;24536;45.488;12.238;2023-04-15T12:24:37;22.70;61.50
38788;DHT22;24536;45.488;12.238;2023-04-15T12:27:11;22.80;60.00
38788;DHT22;24536;45.488;12.238;2023-04-15T12:29:38;22.90;60.30
38788;DHT22;24536;45.488;12.238;2023-04-15T12:32:09;23.50;60.40
38788;DHT22;24536;45.488;12.238;2023-04-15T12:34:40;24.20;58.60
38788;DHT22;24536;45.488;12.238;2023-04-15T12:37:09;25.00;56.50
38788;DHT22;24536;45.488;12.238;2023-04-15T12:39:37;25.70;55.30
38788;DHT22;24536;45.488;12.238;2023-04-15T12:42:03;26.30;54.00
38788;DHT22;24536;45.488;12.238;2023-04-15T12:44:29;26.80;52.00
38788;DHT22;24536;45.488;12.238;2023-04-15T12:46:55;27.30;51.50
38788;DHT22;24536;45.488;12.238;2023-04-15T12:49:22;27.70;50.80
38788;DHT22;24536;45.488;12.238;2023-04-15T12:51:49;28.00;48.50
38788;DHT22;24536;45.488;12.238;2023-04-15T12:54:16;28.10;47.80
38788;DHT22;24536;45.488;12.238;2023-04-15T12:56:43;28.20;47.10
38788;DHT22;24536;45.488;12.238;2023-04-15T12:59:08;28.50;46.90
38788;DHT22;24536;45.488;12.238;2023-04-15T13:01:34;28.80;46.20
38788;DHT22;24536;45.488;12.238;2023-04-15T13:04:00;28.90;45.90
38788;DHT22;24536;45.488;12.238;2023-04-15T13:06:26;28.90;45.20
38788;DHT22;24536;45.488;12.238;2023-04-15T13:08:53;28.60;45.20
38788;DHT22;24536;45.488;12.238;2023-04-15T13:11:21;28.50;45.80
38788;DHT22;24536;45.488;12.238;2023-04-15T13:13:47;28.40;46.20
38788;DHT22;24536;45.488;12.238;2023-04-15T13:16:13;28.50;45.30
38788;DHT22;24536;45.488;12.238;2023-04-15T13:18:38;28.40;44.00
38788;DHT22;24536;45.488;12.238;2023-04-15T13:21:04;28.30;44.50
38788;DHT22;24536;45.488;12.238;2023-04-15T13:23:32;28.10;44.80
38788;DHT22;24536;45.488;12.238;2023-04-15T13:25:58;27.90;44.70
38788;DHT22;24536;45.488;12.238;2023-04-15T13:28:23;27.60;44.90
38788;DHT22;24536;45.488;12.238;2023-04-15T13:30:49;27.30;44.80
38788;DHT22;24536;45.488;12.238;2023-04-15T13:33:16;26.80;45.20
38788;DHT22;24536;45.488;12.238;2023-04-15T13:35:42;26.30;45.50
38788;DHT22;24536;45.488;12.238;2023-04-15T13:38:08;25.60;45.90
38788;DHT22;24536;45.488;12.238;2023-04-15T13:40:34;25.20;46.60
38788;DHT22;24536;45.488;12.238;2023-04-15T13:42:59;24.80;46.40
38788;DHT22;24536;45.488;12.238;2023-04-15T13:45:26;24.40;45.90
38788;DHT22;24536;45.488;12.238;2023-04-15T13:47:52;23.90;45.60
38788;DHT22;24536;45.488;12.238;2023-04-15T13:50:17;23.60;45.90
38788;DHT22;24536;45.488;12.238;2023-04-15T13:52:43;23.20;46.20
38788;DHT22;24536;45.488;12.238;2023-04-15T13:55:09;23.00;46.50
38788;DHT22;24536;45.488;12.238;2023-04-15T13:57:35;22.50;46.30
38788;DHT22;24536;45.488;12.238;2023-04-15T14:00:02;22.40;46.20
38788;DHT22;24536;45.488;12.238;2023-04-15T14:02:28;22.30;47.30
38788;DHT22;24536;45.488;12.238;2023-04-15T14:04:55;22.10;47.60
38788;DHT22;24536;45.488;12.238;2023-04-15T14:07:21;21.70;48.30
38788;DHT22;24536;45.488;12.238;2023-04-15T14:09:47;21.70;48.80
38788;DHT22;24536;45.488;12.238;2023-04-15T14:12:13;21.50;49.10
38788;DHT22;24536;45.488;12.238;2023-04-15T14:14:39;21.30;49.50
38788;DHT22;24536;45.488;12.238;2023-04-15T14:17:05;21.20;50.40
38788;DHT22;24536;45.488;12.238;2023-04-15T14:19:32;21.00;51.70
38788;DHT22;24536;45.488;12.238;2023-04-15T14:21:58;20.70;52.20
38788;DHT22;24536;45.488;12.238;2023-04-15T14:24:24;20.70;52.50
38788;DHT22;24536;45.488;12.238;2023-04-15T14:26:49;20.60;52.80
38788;DHT22;24536;45.488;12.238;2023-04-15T14:29:15;20.60;53.10
38788;DHT22;24536;45.488;12.238;2023-04-15T14:31:41;20.50;53.80
38788;DHT22;24536;45.488;12.238;2023-04-15T14:34:09;20.40;53.80
38788;DHT22;24536;45.488;12.238;2023-04-15T14:36:35;20.30;54.20
38788;DHT22;24536;45.488;12.238;2023-04-15T14:39:02;20.10;53.80
38788;DHT22;24536;45.488;12.238;2023-04-15T14:41:28;20.20;54.40
38788;DHT22;24536;45.488;12.238;2023-04-15T14:43:54;20.10;54.50
38788;DHT22;24536;45.488;12.238;2023-04-15T14:46:21;20.10;54.60
38788;DHT22;24536;45.488;12.238;2023-04-15T14:48:47;20.00;54.80
38788;DHT22;24536;45.488;12.238;2023-04-15T14:51:13;20.00;54.90
38788;DHT22;24536;45.488;12.238;2023-04-15T14:53:39;20.00;55.60
38788;DHT22;24536;45.488;12.238;2023-04-15T14:56:05;19.80;58.50
38788;DHT22;24536;45.488;12.238;2023-04-15T14:58:30;19.80;58.10
38788;DHT22;24536;45.488;12.238;2023-04-15T15:00:58;19.50;65.70
38788;DHT22;24536;45.488;12.238;2023-04-15T15:03:23;19.40;57.70
38788;DHT22;24536;45.488;12.238;2023-04-15T15:05:49;19.50;56.80
38788;DHT22;24536;45.488;12.238;2023-04-15T15:08:14;19.40;56.90
38788;DHT22;24536;45.488;12.238;2023-04-15T15:10:40;19.40;57.50
38788;DHT22;24536;45.488;12.238;2023-04-15T15:13:08;19.20;57.30
38788;DHT22;24536;45.488;12.238;2023-04-15T15:15:35;19.20;57.80
38788;DHT22;24536;45.488;12.238;2023-04-15T15:18:01;19.00;58.20
38788;DHT22;24536;45.488;12.238;2023-04-15T15:20:27;19.00;59.10
38788;DHT22;24536;45.488;12.238;2023-04-15T15:22:53;18.90;58.80